Time;durP1;ratioP1;P1;durP2;ratioP2;P2;SDS_P1;SDS_P2;PMS_P1;PMS_P2;Temp;Humidity;BMP_temperature;BMP_pressure;BME280_temperature;BME280_humidity;BME280_pressure;Samples;Min_cycle;Max_cycle;Signal;HPM_P1;HPM_P2
2023/03/16 00:00:12;;;;;;;7.47;5.13;;;;;;;10.45;61.91;96710.44;5039494;28;20081;-50
2023/03/16 00:02:43;;;;;;;5.95;4.70;;;;;;;10.44;62.51;96712.25;5036069;28;20264;-49
2023/03/16 00:05:13;;;;;;;7.20;5.28;;;;;;;10.42;63.03;96714.16;5041105;28;20085;-47
2023/03/16 00:07:42;;;;;;;10.32;5.30;;;;;;;10.39;62.92;96716.25;5035727;28;20168;-48
2023/03/16 00:10:12;;;;;;;7.97;4.43;;;;;;;10.34;63.42;96706.13;5037536;28;20091;-51
2023/03/16 00:12:42;;;;;;;9.02;4.93;;;;;;;10.34;63.51;96710.56;5041757;28;20100;-57
2023/03/16 00:15:11;;;;;;;7.65;4.90;;;;;;;10.32;63.77;96710.69;5037230;28;20239;-55
2023/03/16 00:17:39;;;;;;;11.18;4.70;;;;;;;10.35;64.24;96705.16;5038981;28;20291;-49
2023/03/16 00:20:11;;;;;;;8.27;5.25;;;;;;;10.33;64.86;96701.84;5035533;28;20065;-46
2023/03/16 00:22:40;;;;;;;8.23;5.43;;;;;;;10.36;64.78;96708.66;5037416;28;20091;-53
2023/03/16 00:25:09;;;;;;;10.53;5.67;;;;;;;10.33;65.08;96709.75;5038908;28;20088;-52
2023/03/16 00:27:38;;;;;;;9.07;5.18;;;;;;;10.32;65.39;96705.41;5040686;28;20602;-51
2023/03/16 00:30:08;;;;;;;8.55;5.40;;;;;;;10.30;64.94;96707.38;5042988;28;20079;-46
2023/03/16 00:32:37;;;;;;;7.75;5.30;;;;;;;10.26;65.54;96718.34;5041666;28;20083;-52
2023/03/16 00:35:06;;;;;;;8.10;4.70;;;;;;;10.21;65.37;96716.88;5037428;28;21057;-45
2023/03/16 00:37:38;;;;;;;9.63;5.18;;;;;;;10.13;65.86;96721.19;5039977;28;20115;-52
2023/03/16 00:40:10;;;;;;;7.60;5.00;;;;;;;10.11;65.85;96720.47;5038741;28;20608;-54
2023/03/16 00:42:38;;;;;;;9.02;5.53;;;;;;;10.05;65.11;96713.97;5037943;28;20072;-47
2023/03/16 00:45:08;;;;;;;8.45;5.15;;;;;;;9.95;65.06;96719.19;5040141;28;20069;-49
2023/03/16 00:47:36;;;;;;;9.18;5.38;;;;;;;9.90;65.17;96724.03;5041824;28;20088;-52
2023/03/16 00:50:05;;;;;;;11.70;5.68;;;;;;;9.87;66.25;96716.38;5047471;28;20087;-50
2023/03/16 00:52:34;;;;;;;13.27;6.43;;;;;;;9.84;66.89;96726.34;5048447;28;20080;-48
2023/03/16 00:55:04;;;;;;;9.95;6.18;;;;;;;9.75;68.64;96725.38;5047773;28;20084;-52
2023/03/16 00:57:33;;;;;;;10.65;6.30;;;;;;;9.71;68.50;96724.81;5048331;28;20072;-50
2023/03/16 01:00:09;;;;;;;11.68;6.53;;;;;;;9.74;68.22;96723.72;5051575;28;20088;-50
2023/03/16 01:02:39;;;;;;;10.30;6.20;;;;;;;9.72;67.92;96717.72;5051423;28;20041;-50
2023/03/16 01:05:08;;;;;;;11.77;6.47;;;;;;;9.68;67.80;96724.22;5047717;28;20084;-50
2023/03/16 01:07:37;;;;;;;9.77;6.53;;;;;;;9.66;68.33;96726.16;5048091;28;20490;-50
2023/03/16 01:10:08;;;;;;;9.73;5.72;;;;;;;9.60;67.54;96721.41;5045242;28;20104;-54
2023/03/16 01:12:36;;;;;;;12.15;6.20;;;;;;;9.53;67.48;96723.72;5046474;28;20072;-49
2023/03/16 01:15:05;;;;;;;9.35;5.90;;;;;;;9.49;67.61;96719.69;5046885;28;20085;-50
2023/03/16 01:17:34;;;;;;;10.07;6.13;;;;;;;9.44;67.87;96725.38;5043719;28;20084;-50
2023/03/16 01:20:06;;;;;;;10.55;6.22;;;;;;;9.41;67.89;96722.16;5047116;28;20084;-52
2023/03/16 01:22:35;;;;;;;8.43;5.63;;;;;;;9.35;68.38;96720.88;5047602;28;20080;-48
2023/03/16 01:25:04;;;;;;;9.95;5.60;;;;;;;9.26;67.57;96722.50;5047644;28;20084;-48
2023/03/16 01:27:34;;;;;;;8.50;5.53;;;;;;;9.17;67.90;96723.28;5046093;28;20087;-51
2023/03/16 01:30:02;;;;;;;10.32;6.30;;;;;;;9.11;68.60;96721.16;5047341;28;20506;-52
2023/03/16 01:32:30;;;;;;;10.32;6.43;;;;;;;9.07;68.48;96717.13;5050799;28;20080;-49
2023/03/16 01:34:59;;;;;;;9.80;6.00;;;;;;;9.00;68.86;96713.34;5047490;28;20764;-50
2023/03/16 01:37:27;;;;;;;8.85;5.70;;;;;;;8.94;69.45;96712.03;5044494;28;20084;-48
2023/03/16 01:39:55;;;;;;;10.38;6.05;;;;;;;8.90;69.71;96712.44;5035577;28;20088;-49
2023/03/16 01:42:23;;;;;;;11.13;6.68;;;;;;;8.75;71.54;96709.31;5047564;28;20080;-47
2023/03/16 01:44:55;;;;;;;11.35;6.70;;;;;;;8.79;73.21;96701.03;5044684;28;20695;-53
2023/03/16 01:47:24;;;;;;;8.75;5.53;;;;;;;8.66;71.54;96708.25;5048660;28;20080;-50
2023/03/16 01:49:55;;;;;;;12.23;6.38;;;;;;;8.61;71.40;96699.09;5047196;28;20515;-45
2023/03/16 01:52:25;;;;;;;9.23;6.03;;;;;;;8.60;71.47;96707.91;5048433;28;20084;-50
2023/03/16 01:54:56;;;;;;;9.32;6.13;;;;;;;8.55;71.96;96700.44;5050111;28;20088;-50
2023/03/16 01:57:25;;;;;;;;;;;;;;;8.42;75.31;96697.97;5048476;28;20580;-52
2023/03/16 01:59:58;;;;;;;10.02;6.22;;;;;;;8.46;74.33;96691.47;5047720;28;19959;-51
2023/03/16 02:02:30;;;;;;;8.93;6.03;;;;;;;8.41;74.36;96695.47;5048198;28;20556;-50
2023/03/16 02:05:02;;;;;;;11.15;6.63;;;;;;;8.36;74.19;96693.16;5047291;28;20099;-50
2023/03/16 02:07:35;;;;;;;10.57;6.13;;;;;;;8.32;73.98;96708.34;5048091;28;20087;-45
2023/03/16 02:10:04;;;;;;;10.60;5.85;;;;;;;8.30;73.99;96705.03;5043374;28;20091;-49
2023/03/16 02:12:33;;;;;;;9.57;6.25;;;;;;;8.29;73.92;96698.13;5049025;28;20104;-46
2023/03/16 02:15:04;;;;;;;11.98;6.95;;;;;;;8.27;77.63;96697.38;5045054;28;20084;-46
2023/03/16 02:17:34;;;;;;;9.27;5.80;;;;;;;8.29;78.25;96700.75;5046741;28;20542;-49
2023/03/16 02:20:09;;;;;;;;;;;;;;;8.27;78.64;96701.81;5047420;28;20534;-49
2023/03/16 02:22:41;;;;;;;11.98;7.10;;;;;;;8.26;81.46;96708.03;5044873;28;20465;-48
2023/03/16 02:25:10;;;;;;;10.48;7.20;;;;;;;8.24;83.07;96702.88;5044005;28;20088;-53
2023/03/16 02:27:43;;;;;;;13.82;6.75;;;;;;;8.21;81.80;96704.94;5045797;28;20078;-52
2023/03/16 02:30:14;;;;;;;13.63;6.95;;;;;;;8.16;80.60;96709.75;5043952;28;20473;-49
2023/03/16 02:32:43;;;;;;;12.65;6.57;;;;;;;8.11;80.54;96704.00;5047881;28;20557;-47
2023/03/16 02:35:11;;;;;;;11.95;6.53;;;;;;;8.11;80.46;96707.47;5042719;28;20081;-52
2023/03/16 02:37:40;;;;;;;10.82;7.30;;;;;;;8.08;80.36;96699.81;5044403;28;20084;-49
2023/03/16 02:40:21;;;;;;;10.80;6.93;;;;;;;8.06;80.49;96702.59;5050068;28;20084;-48
2023/03/16 02:42:53;;;;;;;12.38;7.55;;;;;;;8.06;80.43;96701.75;5048247;28;20095;-49
2023/03/16 02:45:24;;;;;;;11.75;7.05;;;;;;;8.01;79.97;96691.59;5045179;28;20076;-46
2023/03/16 02:47:53;;;;;;;14.07;8.00;;;;;;;8.01;80.94;96694.22;5046220;28;20088;-47
2023/03/16 02:50:21;;;;;;;13.63;7.75;;;;;;;7.99;81.64;96690.06;5048149;28;20091;-48
2023/03/16 02:52:50;;;;;;;13.02;8.00;;;;;;;7.96;81.23;96691.16;5046601;28;20084;-55
2023/03/16 02:55:20;;;;;;;15.27;8.32;;;;;;;7.98;81.86;96696.25;5047087;28;20069;-50
2023/03/16 02:57:49;;;;;;;12.98;7.30;;;;;;;7.93;81.26;96688.75;5045113;28;20501;-48
2023/03/16 03:00:18;;;;;;;13.95;7.65;;;;;;;7.92;80.29;96694.97;5042748;28;20119;-49
2023/03/16 03:02:47;;;;;;;14.20;8.65;;;;;;;7.87;80.24;96691.88;5047574;28;20080;-46
2023/03/16 03:05:16;;;;;;;15.50;8.83;;;;;;;7.87;80.48;96691.03;5046020;28;20081;-45
2023/03/16 03:07:44;;;;;;;13.25;7.65;;;;;;;7.84;80.53;96692.97;5052023;28;20091;-47
2023/03/16 03:10:16;;;;;;;15.63;8.80;;;;;;;7.81;80.06;96693.22;5045643;28;20517;-50
2023/03/16 03:12:48;;;;;;;14.63;7.68;;;;;;;7.79;80.59;96694.28;5046330;28;20092;-49
2023/03/16 03:15:17;;;;;;;13.88;7.93;;;;;;;7.70;79.74;96693.19;5046728;28;20143;-44
2023/03/16 03:17:45;;;;;;;15.07;7.22;;;;;;;7.63;80.03;96692.03;5047233;28;20095;-51
2023/03/16 03:20:16;;;;;;;13.57;7.60;;;;;;;7.62;80.36;96700.84;5049938;28;20512;-47
2023/03/16 03:22:46;;;;;;;14.20;8.00;;;;;;;7.59;81.12;96691.44;5043844;28;20090;-49
2023/03/16 03:25:17;;;;;;;13.98;8.32;;;;;;;7.65;83.22;96695.38;5046303;28;20107;-54
2023/03/16 03:27:46;;;;;;;13.88;7.10;;;;;;;7.57;88.56;96689.88;5046169;28;20076;-49
2023/03/16 03:30:17;;;;;;;13.88;7.55;;;;;;;7.49;89.09;96687.84;5045005;28;20091;-49
2023/03/16 03:32:46;;;;;;;13.75;7.35;;;;;;;7.41;88.17;96694.66;5042622;28;20068;-44
2023/03/16 03:35:16;;;;;;;13.13;7.28;;;;;;;7.33;89.69;96692.66;5043072;28;20107;-51
2023/03/16 03:37:44;;;;;;;12.40;6.90;;;;;;;7.21;90.20;96694.41;5047021;28;20080;-50
2023/03/16 03:40:14;;;;;;;14.20;7.82;;;;;;;7.28;88.14;96684.28;5042821;28;20508;-50
2023/03/16 03:42:43;;;;;;;13.93;7.85;;;;;;;7.25;87.03;96677.47;5047320;28;20085;-47
2023/03/16 03:45:12;;;;;;;13.25;7.13;;;;;;;7.27;86.27;96685.25;5042734;28;20088;-46
2023/03/16 03:47:41;;;;;;;11.90;6.55;;;;;;;7.25;85.78;96690.59;5047554;28;20479;-51
2023/03/16 03:50:10;;;;;;;12.02;7.32;;;;;;;7.20;84.66;96684.88;5043221;28;20100;-53
2023/03/16 03:52:40;;;;;;;13.40;6.73;;;;;;;7.18;84.16;96681.53;5047464;28;20089;-52
2023/03/16 03:55:09;;;;;;;13.70;7.28;;;;;;;7.16;83.76;96682.59;5043900;28;20080;-51
2023/03/16 03:57:38;;;;;;;13.82;7.63;;;;;;;7.12;83.78;96680.22;5046844;28;20479;-47
2023/03/16 04:00:10;;;;;;;12.75;7.90;;;;;;;7.10;83.03;96676.06;5045830;28;20087;-47
2023/03/16 04:02:38;;;;;;;12.32;7.57;;;;;;;7.05;81.88;96675.56;5046548;28;20083;-47
2023/03/16 04:05:08;;;;;;;12.60;6.97;;;;;;;7.02;82.35;96681.03;5045418;28;20057;-52
2023/03/16 04:07:37;;;;;;;14.05;7.68;;;;;;;6.98;82.81;96682.22;5043644;28;20077;-48
2023/03/16 04:10:08;;;;;;;13.05;7.18;;;;;;;6.97;82.71;96678.78;5043492;28;20640;-49
2023/03/16 04:12:36;;;;;;;12.20;7.03;;;;;;;6.94;83.00;96681.63;5044808;28;20081;-47
2023/03/16 04:15:05;;;;;;;12.95;7.10;;;;;;;6.93;82.97;96679.13;5043979;28;20080;-49
2023/03/16 04:17:34;;;;;;;12.82;7.07;;;;;;;6.89;83.36;96678.53;5043528;28;20076;-50
2023/03/16 04:20:04;;;;;;;14.32;7.70;;;;;;;6.83;81.58;96682.44;5045626;28;20087;-52
2023/03/16 04:22:32;;;;;;;12.52;7.30;;;;;;;6.83;81.99;96678.97;5045367;28;20095;-50
2023/03/16 04:25:02;;;;;;;14.45;7.28;;;;;;;6.77;82.04;96682.88;5042676;28;20701;-45
2023/03/16 04:27:35;;;;;;;12.32;6.47;;;;;;;6.76;82.57;96688.25;5049593;28;20084;-47
2023/03/16 04:30:05;;;;;;;9.95;6.15;;;;;;;6.70;84.42;96694.78;5046093;28;20103;-47
2023/03/16 04:32:33;;;;;;;12.75;6.70;;;;;;;6.69;84.78;96701.00;5043713;28;20068;-49
2023/03/16 04:35:02;;;;;;;12.65;7.05;;;;;;;6.60;80.37;96702.50;5039837;28;20474;-46
2023/03/16 04:37:30;;;;;;;12.63;6.47;;;;;;;6.55;80.00;96701.19;5048286;28;20088;-47
2023/03/16 04:39:58;;;;;;;10.45;5.72;;;;;;;6.47;88.84;96696.53;5047300;28;20092;-45
2023/03/16 04:42:27;;;;;;;10.82;5.63;;;;;;;6.53;89.19;96695.22;5048053;28;20077;-47
2023/03/16 04:44:56;;;;;;;10.23;6.22;;;;;;;6.48;86.19;96685.09;5048878;28;20092;-55
2023/03/16 04:47:26;;;;;;;10.57;5.80;;;;;;;6.36;88.38;96683.34;5045348;28;20107;-50
2023/03/16 04:49:54;;;;;;;10.68;5.90;;;;;;;6.18;90.11;96690.78;5045989;28;20076;-47
2023/03/16 04:52:22;;;;;;;7.68;4.93;;;;;;;6.17;88.60;96694.38;5047184;28;20088;-48
2023/03/16 04:54:51;;;;;;;11.52;6.00;;;;;;;6.05;89.00;96688.22;5047641;28;20526;-44
2023/03/16 04:57:19;;;;;;;15.18;7.07;;;;;;;6.08;88.04;96684.53;5047195;28;20084;-49
2023/03/16 04:59:47;;;;;;;10.40;5.95;;;;;;;6.09;88.31;96687.06;5047652;28;20092;-47
2023/03/16 05:02:18;;;;;;;12.05;7.07;;;;;;;6.11;87.56;96679.91;5046919;28;20068;-51
2023/03/16 05:04:47;;;;;;;13.02;7.38;;;;;;;6.15;89.93;96683.16;5047315;28;20150;-51
2023/03/16 05:07:15;;;;;;;16.38;7.50;;;;;;;6.22;94.11;96678.31;5047234;28;20548;-44
2023/03/16 05:09:44;;;;;;;15.50;8.20;;;;;;;6.26;95.24;96667.47;5047910;28;20091;-48
2023/03/16 05:12:12;;;;;;;23.27;7.43;;;;;;;6.26;97.66;96670.09;5047106;28;20478;-47
2023/03/16 05:14:40;;;;;;;18.42;6.78;;;;;;;6.19;100.00;96674.13;5045318;28;20088;-52
2023/03/16 05:17:09;;;;;;;17.63;7.28;;;;;;;6.24;100.00;96671.19;5045601;28;20744;-50
2023/03/16 05:19:39;;;;;;;23.45;7.65;;;;;;;6.26;100.00;96667.47;5049973;28;20483;-47
2023/03/16 05:22:07;;;;;;;17.27;6.63;;;;;;;6.20;100.00;96667.13;5047213;28;20080;-49
2023/03/16 05:24:36;;;;;;;20.10;7.25;;;;;;;6.25;100.00;96663.19;5046810;28;20084;-46
2023/03/16 05:27:04;;;;;;;15.02;6.90;;;;;;;6.24;100.00;96664.16;5047498;28;20081;-48
2023/03/16 05:29:33;;;;;;;14.15;7.68;;;;;;;6.30;100.00;96653.22;5047401;28;20483;-51
2023/03/16 05:32:01;;;;;;;12.27;6.93;;;;;;;6.38;99.04;96661.34;5046570;28;20083;-50
2023/03/16 05:34:30;;;;;;;16.63;7.55;;;;;;;6.45;99.08;96661.72;5048345;28;20087;-50
2023/03/16 05:37:00;;;;;;;15.45;7.97;;;;;;;6.60;97.76;96657.13;5046216;28;20081;-44
2023/03/16 05:39:29;;;;;;;12.77;7.97;;;;;;;6.66;96.09;96664.53;5040600;28;20502;-50
2023/03/16 05:41:58;;;;;;;17.03;8.10;;;;;;;6.63;95.57;96662.13;5042659;28;20092;-49
2023/03/16 05:44:26;;;;;;;15.88;7.85;;;;;;;6.64;95.81;96653.31;5044900;28;20080;-49
2023/03/16 05:46:55;;;;;;;15.85;7.90;;;;;;;6.69;95.77;96655.59;5043379;28;20139;-46
2023/03/16 05:49:23;;;;;;;16.73;8.45;;;;;;;6.73;94.66;96654.41;5043909;28;20076;-52
2023/03/16 05:51:51;;;;;;;15.32;8.23;;;;;;;6.74;94.14;96645.59;5045110;28;20076;-46
2023/03/16 05:54:21;;;;;;;13.02;7.40;;;;;;;6.81;93.43;96641.56;5037807;28;20100;-54
2023/03/16 05:56:49;;;;;;;17.65;9.10;;;;;;;6.86;91.85;96655.16;5041196;28;20103;-50
2023/03/16 05:59:17;;;;;;;14.80;7.55;;;;;;;6.75;86.08;96658.59;5042297;28;20468;-47
2023/03/16 06:01:46;;;;;;;16.40;8.05;;;;;;;6.67;82.69;96650.47;5042799;28;20085;-47
2023/03/16 06:04:14;;;;;;;16.77;8.10;;;;;;;6.69;84.22;96656.44;5039069;28;20487;-53
2023/03/16 06:06:42;;;;;;;21.05;9.57;;;;;;;6.89;85.84;96655.75;5042173;28;20081;-46
2023/03/16 06:09:11;;;;;;;15.23;8.27;;;;;;;7.01;87.06;96656.59;5053603;28;20092;-49
2023/03/16 06:11:40;;;;;;;17.05;7.97;;;;;;;7.18;88.43;96657.09;5045565;28;20084;-53
2023/03/16 06:14:08;;;;;;;17.33;8.13;;;;;;;7.28;87.87;96661.50;5044717;28;20093;-50
2023/03/16 06:16:37;;;;;;;17.65;8.38;;;;;;;7.51;88.59;96661.50;5052702;28;20069;-44
2023/03/16 06:19:05;;;;;;;14.88;8.60;;;;;;;7.62;88.80;96658.88;5042848;28;20088;-44
2023/03/16 06:21:33;;;;;;;15.52;8.48;;;;;;;7.70;87.77;96656.47;5043588;28;20601;-53
2023/03/16 06:24:02;;;;;;;14.13;7.50;;;;;;;7.85;88.98;96657.88;5046135;28;20126;-56
2023/03/16 06:26:30;;;;;;;14.50;7.30;;;;;;;7.91;91.30;96655.69;5048559;28;20467;-49
2023/03/16 06:29:00;;;;;;;15.90;8.27;;;;;;;8.05;92.04;96664.16;5045412;28;20091;-56
2023/03/16 06:31:28;;;;;;;17.47;8.33;;;;;;;8.24;90.61;96665.28;5046049;28;20534;-51
2023/03/16 06:33:56;;;;;;;16.67;8.73;;;;;;;8.39;89.59;96666.66;5042491;28;20531;-46
2023/03/16 06:36:25;;;;;;;16.15;8.50;;;;;;;8.53;88.79;96669.03;5043446;28;20087;-49
2023/03/16 06:38:53;;;;;;;15.02;8.50;;;;;;;8.73;88.32;96669.16;5043492;28;20105;-47
2023/03/16 06:41:21;;;;;;;17.15;8.80;;;;;;;8.84;86.80;96666.44;5043711;28;20081;-48
2023/03/16 06:43:49;;;;;;;19.20;7.93;;;;;;;8.89;85.49;96666.91;5044842;28;20080;-50
2023/03/16 06:46:19;;;;;;;14.43;8.65;;;;;;;9.10;84.16;96668.69;5039724;28;20524;-51
2023/03/16 06:48:48;;;;;;;14.85;8.10;;;;;;;9.21;83.04;96672.06;5043212;28;20083;-49
2023/03/16 06:51:16;;;;;;;14.57;8.23;;;;;;;9.38;81.24;96667.97;5042097;28;20081;-45
2023/03/16 06:53:45;;;;;;;13.82;8.48;;;;;;;9.55;79.54;96669.16;5047732;28;20479;-57
2023/03/16 06:56:13;;;;;;;16.17;8.45;;;;;;;9.54;79.12;96661.41;5040915;28;20100;-52
2023/03/16 06:58:41;;;;;;;15.77;8.23;;;;;;;9.64;78.12;96665.75;5045646;28;20088;-47
2023/03/16 07:01:11;;;;;;;17.13;8.82;;;;;;;9.74;78.84;96661.34;5045442;28;20577;-47
2023/03/16 07:03:41;;;;;;;14.73;8.23;;;;;;;9.87;76.80;96649.72;5047875;28;20077;-52
2023/03/16 07:06:09;;;;;;;16.08;7.43;;;;;;;9.81;76.50;96655.53;5046523;28;20085;-51
2023/03/16 07:08:37;;;;;;;13.50;8.20;;;;;;;9.83;74.38;96651.78;5047931;28;20083;-46
2023/03/16 07:11:06;;;;;;;13.90;8.45;;;;;;;10.08;73.86;96660.13;5046073;28;20072;-49
2023/03/16 07:13:34;;;;;;;12.77;8.23;;;;;;;9.94;72.42;96656.97;5044218;28;20088;-50
2023/03/16 07:16:03;;;;;;;14.50;8.43;;;;;;;9.99;73.01;96651.28;5051897;28;20073;-48
2023/03/16 07:18:32;;;;;;;12.40;6.80;;;;;;;9.94;73.32;96654.31;5049108;28;20095;-47
2023/03/16 07:21:02;;;;;;;16.95;8.18;;;;;;;10.34;71.66;96656.03;5047065;28;20102;-50
2023/03/16 07:23:31;;;;;;;12.85;8.07;;;;;;;10.44;70.04;96659.50;5045391;28;20707;-46
2023/03/16 07:25:59;;;;;;;15.10;8.20;;;;;;;10.50;70.38;96655.50;5047939;28;20095;-51
2023/03/16 07:28:28;;;;;;;15.15;8.85;;;;;;;10.71;69.84;96651.88;5040065;28;20478;-48
2023/03/16 07:30:56;;;;;;;13.82;7.57;;;;;;;10.89;67.70;96651.00;5048649;28;20099;-50
2023/03/16 07:33:32;;;;;;;14.05;8.75;;;;;;;10.62;66.58;96649.09;5046338;28;20077;-52
2023/03/16 07:36:04;;;;;;;15.40;8.23;;;;;;;10.89;65.09;96658.09;5044596;28;20088;-50
2023/03/16 07:38:33;;;;;;;12.35;7.97;;;;;;;10.87;64.03;96660.03;5048062;28;20526;-51
2023/03/16 07:41:01;;;;;;;13.40;7.65;;;;;;;11.05;64.60;96660.97;5042560;28;20457;-57
2023/03/16 07:43:29;;;;;;;17.15;8.73;;;;;;;11.24;63.78;96656.63;5044121;28;20088;-49
2023/03/16 07:45:58;;;;;;;13.55;8.15;;;;;;;10.83;65.90;96663.94;5039444;28;20077;-54
2023/03/16 07:48:27;;;;;;;12.05;7.65;;;;;;;10.99;64.47;96660.72;5045943;28;20163;-47
2023/03/16 07:50:55;;;;;;;12.50;8.05;;;;;;;11.30;64.14;96656.03;5046309;28;20084;-52
2023/03/16 07:53:25;;;;;;;12.10;6.80;;;;;;;11.49;61.62;96658.59;5045680;28;20085;-48
2023/03/16 07:55:53;;;;;;;11.77;7.73;;;;;;;11.28;62.41;96669.38;5043265;28;20077;-46
2023/03/16 07:58:21;;;;;;;16.42;8.65;;;;;;;11.50;62.11;96665.56;5046116;28;20518;-48
2023/03/16 08:00:50;;;;;;;13.35;8.63;;;;;;;11.37;60.50;96675.63;5044866;28;20072;-49
2023/03/16 08:03:18;;;;;;;12.48;7.90;;;;;;;11.65;59.07;96674.66;5073790;28;20667;-48
2023/03/16 08:05:46;;;;;;;11.80;6.40;;;;;;;11.61;59.83;96678.56;5046864;28;20345;-49
2023/03/16 08:08:15;;;;;;;13.82;8.30;;;;;;;11.65;59.28;96672.03;5041055;28;20081;-49
2023/03/16 08:10:47;;;;;;;14.77;8.88;;;;;;;11.63;59.02;96689.84;5042824;28;20455;-50
2023/03/16 08:13:16;;;;;;;14.60;8.15;;;;;;;11.85;60.18;96683.38;5042000;28;20074;-47
2023/03/16 08:15:46;;;;;;;14.15;7.93;;;;;;;11.98;58.51;96679.56;5042221;28;20560;-46
2023/03/16 08:18:15;;;;;;;14.18;7.47;;;;;;;11.97;58.03;96699.00;5044198;28;20088;-51
2023/03/16 08:20:43;;;;;;;11.63;7.35;;;;;;;12.37;57.09;96682.78;5042760;28;20080;-50
2023/03/16 08:23:14;;;;;;;11.68;7.28;;;;;;;12.86;56.53;96680.56;5044248;28;20646;-46
2023/03/16 08:25:44;;;;;;;11.68;7.32;;;;;;;12.48;54.18;96693.13;5042040;28;20091;-45
2023/03/16 08:28:14;;;;;;;11.15;7.18;;;;;;;12.33;54.29;96690.16;5041124;28;20071;-48
2023/03/16 08:30:46;;;;;;;11.43;6.25;;;;;;;12.42;55.79;96690.25;5038559;28;20080;-47
2023/03/16 08:33:16;;;;;;;11.95;6.65;;;;;;;12.42;54.90;96688.47;5046208;28;20123;-49
2023/03/16 08:35:45;;;;;;;9.23;5.33;;;;;;;12.21;55.07;96682.59;5040559;28;20638;-45
2023/03/16 08:38:14;;;;;;;11.90;7.95;;;;;;;12.52;54.52;96683.91;5042988;28;20529;-48
2023/03/16 08:40:47;;;;;;;10.57;7.05;;;;;;;12.52;54.54;96675.13;5045344;28;20081;-48
2023/03/16 08:43:16;;;;;;;13.05;7.97;;;;;;;12.34;55.50;96680.41;5044456;28;20443;-46
2023/03/16 08:45:45;;;;;;;11.82;6.72;;;;;;;12.33;56.42;96682.25;5043875;28;20748;-51
2023/03/16 08:48:13;;;;;;;10.57;6.82;;;;;;;12.94;54.75;96672.69;5043104;28;20069;-45
2023/03/16 08:50:43;;;;;;;12.60;6.60;;;;;;;12.74;54.85;96685.25;5042076;28;20115;-57
2023/03/16 08:53:13;;;;;;;10.45;7.00;;;;;;;13.03;54.10;96678.88;5042579;28;20095;-52
2023/03/16 08:55:41;;;;;;;12.57;7.03;;;;;;;13.47;54.33;96676.19;5045306;28;20068;-53
2023/03/16 08:58:12;;;;;;;11.68;6.50;;;;;;;13.73;51.97;96666.41;5075190;28;20064;-53
2023/03/16 09:00:41;;;;;;;8.93;6.30;;;;;;;13.68;50.90;96667.88;5043116;28;20080;-52
2023/03/16 09:03:12;;;;;;;11.00;7.18;;;;;;;13.34;51.61;96666.03;5044704;28;20079;-54
2023/03/16 09:05:41;;;;;;;10.00;5.63;;;;;;;13.17;51.55;96665.06;5040332;28;20083;-46
2023/03/16 09:08:09;;;;;;;11.10;6.97;;;;;;;13.75;50.55;96658.28;5075436;28;20072;-50
2023/03/16 09:10:37;;;;;;;10.07;6.93;;;;;;;14.27;50.42;96657.28;5043368;28;20080;-51
2023/03/16 09:13:06;;;;;;;9.90;6.70;;;;;;;14.02;50.50;96658.06;5042118;28;20093;-49
2023/03/16 09:15:36;;;;;;;9.18;6.85;;;;;;;14.35;49.39;96647.53;5043482;28;20080;-45
2023/03/16 09:18:05;;;;;;;9.35;6.50;;;;;;;14.26;48.92;96651.16;5043778;28;20072;-51
2023/03/16 09:20:33;;;;;;;9.05;6.07;;;;;;;14.39;48.54;96650.69;5043806;28;20067;-45
2023/03/16 09:23:02;;;;;;;9.50;6.30;;;;;;;14.37;48.77;96661.44;5040771;28;20084;-49
2023/03/16 09:25:31;;;;;;;9.55;5.88;;;;;;;14.84;47.69;96663.50;5047572;28;20545;-50
2023/03/16 09:27:59;;;;;;;9.88;6.30;;;;;;;14.55;47.91;96656.03;5042806;28;20081;-52
2023/03/16 09:30:28;;;;;;;12.00;6.82;;;;;;;14.52;48.09;96660.81;5042521;28;20068;-55
2023/03/16 09:32:58;;;;;;;11.43;6.97;;;;;;;14.64;47.65;96656.88;5042640;28;20482;-50
2023/03/16 09:35:26;;;;;;;11.25;6.97;;;;;;;14.89;47.83;96653.22;5041161;28;20091;-55
2023/03/16 09:37:56;;;;;;;9.05;5.43;;;;;;;14.13;48.40;96656.09;5041598;28;20311;-45
2023/03/16 09:40:34;;;;;;;10.35;6.50;;;;;;;14.49;48.18;96667.28;5046268;28;20076;-51
2023/03/16 09:43:25;;;;;;;10.63;6.22;;;;;;;14.37;48.86;96666.75;5047357;28;20073;-50
2023/03/16 09:46:01;;;;;;;13.90;7.28;;;;;;;14.64;49.39;96659.53;5045364;28;20067;-51
2023/03/16 09:48:34;;;;;;;7.80;5.07;;;;;;;14.43;48.77;96668.75;5049179;28;20435;-49
2023/03/16 09:51:06;;;;;;;9.32;6.38;;;;;;;15.03;47.43;96659.69;5045423;28;20514;-46
2023/03/16 09:53:37;;;;;;;10.95;6.43;;;;;;;15.34;48.31;96651.00;5041429;28;20069;-49
2023/03/16 09:56:07;;;;;;;;;;;;;;;15.18;47.37;96658.00;5047636;28;20080;-52
2023/03/16 09:58:35;;;;;;;10.90;6.88;;;;;;;14.97;48.30;96655.06;5044935;28;19960;-47
2023/03/16 10:01:09;;;;;;;9.98;6.82;;;;;;;15.01;48.24;96651.06;5046463;28;20089;-50
2023/03/16 10:03:59;;;;;;;13.48;8.15;;;;;;;14.32;49.55;96661.13;5053351;28;20470;-46
2023/03/16 10:06:28;;;;;;;11.38;7.35;;;;;;;14.07;50.50;96657.56;5062337;28;20656;-48
2023/03/16 10:09:05;;;;;;;10.07;6.05;;;;;;;13.93;50.83;96660.81;5048112;28;20080;-50
2023/03/16 10:11:36;;;;;;;12.77;8.32;;;;;;;13.99;50.67;96661.03;5045283;28;20088;-47
2023/03/16 10:14:12;;;;;;;12.27;6.75;;;;;;;13.79;50.97;96667.56;5046669;28;20084;-51
2023/03/16 10:16:46;;;;;;;11.35;7.32;;;;;;;14.23;51.17;96657.59;5047604;28;20095;-47
2023/03/16 10:19:19;;;;;;;12.32;7.88;;;;;;;14.07;49.52;96659.38;5046102;28;20080;-51
2023/03/16 10:21:49;;;;;;;15.43;9.38;;;;;;;14.30;49.72;96652.47;5047078;28;20060;-46
2023/03/16 10:24:25;;;;;;;13.98;7.93;;;;;;;14.52;49.89;96652.88;5045037;28;20076;-52
2023/03/16 10:26:58;;;;;;;12.30;7.85;;;;;;;14.08;50.24;96661.88;5048097;28;20080;-55
2023/03/16 10:29:30;;;;;;;14.73;8.32;;;;;;;14.37;50.44;96652.66;5045373;28;20470;-54
2023/03/16 10:32:01;;;;;;;11.25;6.55;;;;;;;14.26;48.83;96656.47;5046687;28;20080;-48
2023/03/16 10:34:31;;;;;;;11.45;6.70;;;;;;;14.74;48.00;96646.09;5042848;28;20740;-48
2023/03/16 10:37:01;;;;;;;15.52;8.75;;;;;;;13.98;48.26;96658.53;5045904;28;20072;-52
2023/03/16 10:39:35;;;;;;;;;;;;;;;14.33;49.11;96652.16;5039486;28;20517;-48
2023/03/16 10:42:03;;;;;;;11.65;7.03;;;;;;;14.42;47.49;96645.06;5047896;28;19956;-49
2023/03/16 10:44:32;;;;;;;10.60;5.80;;;;;;;14.10;48.81;96636.03;5044874;28;21089;-49
2023/03/16 10:47:03;;;;;;;10.88;7.38;;;;;;;14.50;47.32;96634.47;5043596;28;20482;-48
2023/03/16 10:49:40;;;;;;;12.55;7.43;;;;;;;14.65;48.97;96631.97;5045172;28;23867;-49
2023/03/16 10:52:14;;;;;;;11.18;6.85;;;;;;;14.17;48.15;96620.28;5074440;28;20080;-46
2023/03/16 10:54:49;;;;;;;11.77;6.93;;;;;;;14.27;47.79;96628.09;5044818;28;20079;-47
2023/03/16 10:57:24;;;;;;;14.30;7.53;;;;;;;14.90;47.67;96624.81;5047379;28;20081;-47
2023/03/16 10:59:53;;;;;;;10.38;5.22;;;;;;;14.77;49.21;96617.38;5044073;28;20080;-49
2023/03/16 11:02:26;;;;;;;13.40;7.85;;;;;;;14.72;47.46;96615.22;5043312;28;20453;-45
2023/03/16 11:04:56;;;;;;;10.73;6.07;;;;;;;14.46;46.93;96614.53;5045212;28;20088;-51
2023/03/16 11:07:25;;;;;;;12.95;7.55;;;;;;;15.09;46.88;96605.06;5044729;28;20076;-47
2023/03/16 11:09:56;;;;;;;14.85;7.00;;;;;;;14.87;46.30;96596.81;5043791;28;20455;-45
2023/03/16 11:12:27;;;;;;;12.95;7.28;;;;;;;15.20;46.08;96602.88;5046223;28;20095;-51
2023/03/16 11:15:02;;;;;;;11.65;5.93;;;;;;;14.55;46.24;96594.16;5042941;28;20527;-49
2023/03/16 11:17:38;;;;;;;11.18;6.50;;;;;;;14.70;45.23;96596.00;5045406;28;20076;-48
2023/03/16 11:20:15;;;;;;;;;;;;;;;14.52;46.52;96597.13;5072727;28;20069;-45
2023/03/16 11:22:46;;;;;;;18.05;10.82;;;;;;;14.72;46.11;96591.31;5046153;28;19960;-45
2023/03/16 11:25:19;;;;;;;11.48;7.22;;;;;;;14.98;45.94;96585.00;5040267;28;20533;-47
2023/03/16 11:27:52;;;;;;;12.30;6.82;;;;;;;14.71;nan;96583.53;5045999;28;20072;-49
2023/03/16 11:30:25;;;;;;;14.85;8.82;;;;;;;14.93;47.13;96580.22;5044341;28;20514;-45
2023/03/16 11:32:54;;;;;;;12.68;7.63;;;;;;;15.20;47.42;96570.16;5045546;28;20084;-49
2023/03/16 11:35:29;;;;;;;10.30;5.88;;;;;;;15.05;47.14;96570.03;5044091;28;20084;-50
2023/03/16 11:38:09;;;;;;;15.52;8.95;;;;;;;14.92;48.61;96565.25;5042709;28;20088;-51
2023/03/16 11:40:46;;;;;;;9.50;6.13;;;;;;;14.61;49.29;96578.41;5046064;28;20077;-45
2023/03/16 11:43:35;;;;;;;13.98;7.57;;;;;;;14.74;49.03;96559.31;5001611;28;1139265;-48